sensor_id;sensor_type;location;lat;lon;timestamp;P1;durP1;ratioP1;P2;durP2;ratioP2
64197;SDS011;50512;53.666;9.700;2023-07-24T00:01:07;7.13;;;4.63;;
64197;SDS011;50512;53.666;9.700;2023-07-24T00:03:35;9.40;;;5.60;;
64197;SDS011;50512;53.666;9.700;2023-07-24T00:06:02;8.68;;;4.65;;
64197;SDS011;50512;53.666;9.700;2023-07-24T00:08:28;9.20;;;5.35;;
64197;SDS011;50512;53.666;9.700;2023-07-24T00:10:55;8.75;;;5.45;;
64197;SDS011;50512;53.666;9.700;2023-07-24T00:13:21;10.30;;;5.97;;
64197;SDS011;50512;53.666;9.700;2023-07-24T00:15:47;8.85;;;5.28;;
64197;SDS011;50512;53.666;9.700;2023-07-24T00:18:14;7.60;;;4.90;;
64197;SDS011;50512;53.666;9.700;2023-07-24T00:20:42;9.48;;;4.97;;
64197;SDS011;50512;53.666;9.700;2023-07-24T00:23:08;8.20;;;5.22;;
64197;SDS011;50512;53.666;9.700;2023-07-24T00:25:35;8.05;;;4.80;;
64197;SDS011;50512;53.666;9.700;2023-07-24T00:28:01;11.18;;;5.63;;
64197;SDS011;50512;53.666;9.700;2023-07-24T00:30:27;11.07;;;5.43;;
64197;SDS011;50512;53.666;9.700;2023-07-24T00:32:54;9.00;;;5.25;;
64197;SDS011;50512;53.666;9.700;2023-07-24T00:35:20;7.55;;;4.82;;
64197;SDS011;50512;53.666;9.700;2023-07-24T00:37:48;11.27;;;5.57;;
64197;SDS011;50512;53.666;9.700;2023-07-24T00:40:14;8.82;;;5.40;;
64197;SDS011;50512;53.666;9.700;2023-07-24T00:42:45;8.95;;;5.63;;
64197;SDS011;50512;53.666;9.700;2023-07-24T00:45:12;9.23;;;5.45;;
64197;SDS011;50512;53.666;9.700;2023-07-24T00:47:39;9.27;;;5.40;;
64197;SDS011;50512;53.666;9.700;2023-07-24T00:50:07;9.13;;;5.70;;
64197;SDS011;50512;53.666;9.700;2023-07-24T00:52:33;10.40;;;6.18;;
64197;SDS011;50512;53.666;9.700;2023-07-24T00:55:01;11.43;;;5.85;;
64197;SDS011;50512;53.666;9.700;2023-07-24T00:57:28;8.30;;;5.25;;
64197;SDS011;50512;53.666;9.700;2023-07-24T00:59:54;8.52;;;6.03;;
64197;SDS011;50512;53.666;9.700;2023-07-24T01:02:21;10.88;;;5.90;;
64197;SDS011;50512;53.666;9.700;2023-07-24T01:04:48;10.60;;;6.10;;
64197;SDS011;50512;53.666;9.700;2023-07-24T01:07:14;12.50;;;7.07;;
64197;SDS011;50512;53.666;9.700;2023-07-24T01:09:42;9.10;;;5.93;;
64197;SDS011;50512;53.666;9.700;2023-07-24T01:12:13;8.25;;;5.65;;
64197;SDS011;50512;53.666;9.700;2023-07-24T01:14:47;10.30;;;7.20;;
64197;SDS011;50512;53.666;9.700;2023-07-24T01:17:20;10.00;;;6.72;;
64197;SDS011;50512;53.666;9.700;2023-07-24T01:19:50;12.07;;;7.30;;
64197;SDS011;50512;53.666;9.700;2023-07-24T01:22:24;9.15;;;6.20;;
64197;SDS011;50512;53.666;9.700;2023-07-24T01:25:01;10.45;;;6.78;;
64197;SDS011;50512;53.666;9.700;2023-07-24T01:27:36;9.45;;;6.13;;
64197;SDS011;50512;53.666;9.700;2023-07-24T01:30:07;8.60;;;5.57;;
64197;SDS011;50512;53.666;9.700;2023-07-24T01:32:34;12.27;;;6.65;;
64197;SDS011;50512;53.666;9.700;2023-07-24T01:35:01;10.40;;;6.28;;
64197;SDS011;50512;53.666;9.700;2023-07-24T01:37:27;10.57;;;7.38;;
64197;SDS011;50512;53.666;9.700;2023-07-24T01:39:54;11.02;;;6.32;;
64197;SDS011;50512;53.666;9.700;2023-07-24T01:42:22;10.60;;;7.00;;
64197;SDS011;50512;53.666;9.700;2023-07-24T01:44:52;10.82;;;7.13;;
64197;SDS011;50512;53.666;9.700;2023-07-24T01:47:19;14.15;;;6.72;;
64197;SDS011;50512;53.666;9.700;2023-07-24T01:49:45;11.48;;;7.28;;
64197;SDS011;50512;53.666;9.700;2023-07-24T01:52:12;11.63;;;7.22;;
64197;SDS011;50512;53.666;9.700;2023-07-24T01:54:38;11.95;;;7.38;;
64197;SDS011;50512;53.666;9.700;2023-07-24T01:57:05;12.25;;;8.45;;
64197;SDS011;50512;53.666;9.700;2023-07-24T01:59:31;13.30;;;7.80;;
64197;SDS011;50512;53.666;9.700;2023-07-24T02:01:59;12.23;;;8.57;;
64197;SDS011;50512;53.666;9.700;2023-07-24T02:04:25;17.25;;;8.27;;
64197;SDS011;50512;53.666;9.700;2023-07-24T02:06:51;14.30;;;8.00;;
64197;SDS011;50512;53.666;9.700;2023-07-24T02:09:18;11.90;;;7.65;;
64197;SDS011;50512;53.666;9.700;2023-07-24T02:11:44;10.63;;;6.75;;
64197;SDS011;50512;53.666;9.700;2023-07-24T02:14:11;14.05;;;7.40;;
64197;SDS011;50512;53.666;9.700;2023-07-24T02:16:39;13.43;;;8.27;;
64197;SDS011;50512;53.666;9.700;2023-07-24T02:19:06;12.55;;;7.50;;
64197;SDS011;50512;53.666;9.700;2023-07-24T02:21:33;11.77;;;7.25;;
64197;SDS011;50512;53.666;9.700;2023-07-24T02:23:59;11.32;;;7.35;;
64197;SDS011;50512;53.666;9.700;2023-07-24T02:26:26;12.35;;;7.65;;
64197;SDS011;50512;53.666;9.700;2023-07-24T02:28:52;12.35;;;7.85;;
64197;SDS011;50512;53.666;9.700;2023-07-24T02:31:19;11.93;;;7.22;;
64197;SDS011;50512;53.666;9.700;2023-07-24T02:33:45;11.10;;;7.47;;
64197;SDS011;50512;53.666;9.700;2023-07-24T02:36:13;12.70;;;7.32;;
64197;SDS011;50512;53.666;9.700;2023-07-24T02:38:40;10.90;;;6.95;;
64197;SDS011;50512;53.666;9.700;2023-07-24T02:41:06;11.80;;;7.22;;
64197;SDS011;50512;53.666;9.700;2023-07-24T02:43:32;11.25;;;7.38;;
64197;SDS011;50512;53.666;9.700;2023-07-24T02:46:00;11.27;;;6.93;;
64197;SDS011;50512;53.666;9.700;2023-07-24T02:48:27;11.07;;;7.43;;
64197;SDS011;50512;53.666;9.700;2023-07-24T02:50:53;15.75;;;7.57;;
64197;SDS011;50512;53.666;9.700;2023-07-24T02:53:21;10.80;;;6.95;;
64197;SDS011;50512;53.666;9.700;2023-07-24T02:55:48;11.85;;;6.95;;
64197;SDS011;50512;53.666;9.700;2023-07-24T02:58:14;10.75;;;6.55;;
64197;SDS011;50512;53.666;9.700;2023-07-24T03:00:40;13.35;;;7.07;;
64197;SDS011;50512;53.666;9.700;2023-07-24T03:03:07;11.10;;;6.90;;
64197;SDS011;50512;53.666;9.700;2023-07-24T03:05:34;10.32;;;7.00;;
64197;SDS011;50512;53.666;9.700;2023-07-24T03:08:00;13.55;;;6.95;;
64197;SDS011;50512;53.666;9.700;2023-07-24T03:10:28;12.10;;;6.22;;
64197;SDS011;50512;53.666;9.700;2023-07-24T03:12:55;10.98;;;6.70;;
64197;SDS011;50512;53.666;9.700;2023-07-24T03:15:21;12.13;;;6.85;;
64197;SDS011;50512;53.666;9.700;2023-07-24T03:17:48;9.88;;;5.65;;
64197;SDS011;50512;53.666;9.700;2023-07-24T03:20:15;11.05;;;6.20;;
64197;SDS011;50512;53.666;9.700;2023-07-24T03:22:43;12.30;;;7.25;;
64197;SDS011;50512;53.666;9.700;2023-07-24T03:25:10;10.43;;;6.68;;
64197;SDS011;50512;53.666;9.700;2023-07-24T03:27:37;9.57;;;5.63;;
64197;SDS011;50512;53.666;9.700;2023-07-24T03:30:04;12.65;;;6.50;;
64197;SDS011;50512;53.666;9.700;2023-07-24T03:32:32;10.55;;;6.18;;
64197;SDS011;50512;53.666;9.700;2023-07-24T03:34:58;11.43;;;6.82;;
64197;SDS011;50512;53.666;9.700;2023-07-24T03:37:25;11.73;;;6.82;;
64197;SDS011;50512;53.666;9.700;2023-07-24T03:39:51;11.45;;;6.72;;
64197;SDS011;50512;53.666;9.700;2023-07-24T03:42:24;11.57;;;6.47;;
64197;SDS011;50512;53.666;9.700;2023-07-24T03:44:53;9.57;;;6.00;;
64197;SDS011;50512;53.666;9.700;2023-07-24T03:47:20;10.02;;;6.13;;
64197;SDS011;50512;53.666;9.700;2023-07-24T03:49:46;10.05;;;6.68;;
64197;SDS011;50512;53.666;9.700;2023-07-24T03:52:13;11.32;;;5.88;;
64197;SDS011;50512;53.666;9.700;2023-07-24T03:54:39;9.60;;;5.45;;
64197;SDS011;50512;53.666;9.700;2023-07-24T03:57:06;8.18;;;5.22;;
64197;SDS011;50512;53.666;9.700;2023-07-24T03:59:32;11.60;;;5.53;;
64197;SDS011;50512;53.666;9.700;2023-07-24T04:02:00;10.43;;;5.38;;
64197;SDS011;50512;53.666;9.700;2023-07-24T04:04:27;10.45;;;6.90;;
64197;SDS011;50512;53.666;9.700;2023-07-24T04:06:53;12.52;;;6.15;;
64197;SDS011;50512;53.666;9.700;2023-07-24T04:09:20;10.63;;;5.85;;
64197;SDS011;50512;53.666;9.700;2023-07-24T04:11:46;12.40;;;7.05;;
64197;SDS011;50512;53.666;9.700;2023-07-24T04:14:12;10.60;;;5.95;;
64197;SDS011;50512;53.666;9.700;2023-07-24T04:16:39;11.07;;;6.70;;
64197;SDS011;50512;53.666;9.700;2023-07-24T04:19:07;11.00;;;7.20;;
64197;SDS011;50512;53.666;9.700;2023-07-24T04:21:33;12.02;;;7.03;;
64197;SDS011;50512;53.666;9.700;2023-07-24T04:24:00;9.75;;;6.50;;
64197;SDS011;50512;53.666;9.700;2023-07-24T04:26:26;13.73;;;6.45;;
64197;SDS011;50512;53.666;9.700;2023-07-24T04:28:53;12.18;;;7.00;;
64197;SDS011;50512;53.666;9.700;2023-07-24T04:31:19;10.85;;;6.35;;
64197;SDS011;50512;53.666;9.700;2023-07-24T04:33:46;12.52;;;6.05;;
64197;SDS011;50512;53.666;9.700;2023-07-24T04:36:14;14.15;;;8.07;;
64197;SDS011;50512;53.666;9.700;2023-07-24T04:38:40;11.70;;;7.18;;
64197;SDS011;50512;53.666;9.700;2023-07-24T04:41:07;10.95;;;6.10;;
64197;SDS011;50512;53.666;9.700;2023-07-24T04:43:33;14.20;;;7.65;;
64197;SDS011;50512;53.666;9.700;2023-07-24T04:46:00;10.73;;;6.25;;
64197;SDS011;50512;53.666;9.700;2023-07-24T04:48:26;12.57;;;6.60;;
64197;SDS011;50512;53.666;9.700;2023-07-24T04:50:53;11.15;;;7.18;;
64197;SDS011;50512;53.666;9.700;2023-07-24T04:53:21;11.90;;;6.78;;
64197;SDS011;50512;53.666;9.700;2023-07-24T04:55:49;10.63;;;6.80;;
64197;SDS011;50512;53.666;9.700;2023-07-24T04:58:15;10.52;;;6.82;;
64197;SDS011;50512;53.666;9.700;2023-07-24T05:00:42;10.60;;;6.10;;
64197;SDS011;50512;53.666;9.700;2023-07-24T05:03:08;11.30;;;6.65;;
64197;SDS011;50512;53.666;9.700;2023-07-24T05:05:36;9.63;;;6.03;;
64197;SDS011;50512;53.666;9.700;2023-07-24T05:08:02;15.38;;;7.90;;
64197;SDS011;50512;53.666;9.700;2023-07-24T05:10:31;10.35;;;6.45;;
64197;SDS011;50512;53.666;9.700;2023-07-24T05:13:00;11.73;;;6.72;;
64197;SDS011;50512;53.666;9.700;2023-07-24T05:15:27;12.77;;;6.45;;
64197;SDS011;50512;53.666;9.700;2023-07-24T05:17:53;12.90;;;6.65;;
64197;SDS011;50512;53.666;9.700;2023-07-24T05:20:20;11.63;;;6.88;;
64197;SDS011;50512;53.666;9.700;2023-07-24T05:22:46;10.32;;;6.38;;
64197;SDS011;50512;53.666;9.700;2023-07-24T05:25:13;10.77;;;6.60;;
64197;SDS011;50512;53.666;9.700;2023-07-24T05:27:40;9.73;;;5.80;;
64197;SDS011;50512;53.666;9.700;2023-07-24T05:30:07;10.45;;;6.40;;
64197;SDS011;50512;53.666;9.700;2023-07-24T05:32:34;10.35;;;5.20;;
64197;SDS011;50512;53.666;9.700;2023-07-24T05:35:00;10.00;;;6.43;;
64197;SDS011;50512;53.666;9.700;2023-07-24T05:37:26;9.45;;;5.88;;
64197;SDS011;50512;53.666;9.700;2023-07-24T05:39:53;12.00;;;6.32;;
64197;SDS011;50512;53.666;9.700;2023-07-24T05:42:19;11.30;;;6.10;;
64197;SDS011;50512;53.666;9.700;2023-07-24T05:44:47;9.38;;;5.45;;
64197;SDS011;50512;53.666;9.700;2023-07-24T05:47:14;8.95;;;5.72;;
64197;SDS011;50512;53.666;9.700;2023-07-24T05:49:40;9.40;;;6.28;;
64197;SDS011;50512;53.666;9.700;2023-07-24T05:52:07;10.20;;;6.32;;
64197;SDS011;50512;53.666;9.700;2023-07-24T05:54:33;8.55;;;5.38;;
64197;SDS011;50512;53.666;9.700;2023-07-24T05:56:59;16.85;;;6.88;;
64197;SDS011;50512;53.666;9.700;2023-07-24T05:59:26;9.45;;;5.90;;
64197;SDS011;50512;53.666;9.700;2023-07-24T06:01:54;9.02;;;5.70;;
64197;SDS011;50512;53.666;9.700;2023-07-24T06:04:20;9.48;;;6.15;;
64197;SDS011;50512;53.666;9.700;2023-07-24T06:06:47;10.52;;;6.07;;
64197;SDS011;50512;53.666;9.700;2023-07-24T06:09:13;9.40;;;5.93;;
64197;SDS011;50512;53.666;9.700;2023-07-24T06:11:39;10.80;;;6.47;;
64197;SDS011;50512;53.666;9.700;2023-07-24T06:14:06;10.07;;;6.63;;
64197;SDS011;50512;53.666;9.700;2023-07-24T06:16:32;10.25;;;6.15;;
64197;SDS011;50512;53.666;9.700;2023-07-24T06:19:00;9.73;;;6.60;;
64197;SDS011;50512;53.666;9.700;2023-07-24T06:21:26;10.02;;;5.40;;
64197;SDS011;50512;53.666;9.700;2023-07-24T06:23:53;10.40;;;6.05;;
64197;SDS011;50512;53.666;9.700;2023-07-24T06:26:19;11.70;;;6.20;;
64197;SDS011;50512;53.666;9.700;2023-07-24T06:28:46;9.60;;;6.57;;
64197;SDS011;50512;53.666;9.700;2023-07-24T06:31:12;12.15;;;6.45;;
64197;SDS011;50512;53.666;9.700;2023-07-24T06:33:39;11.25;;;5.10;;
64197;SDS011;50512;53.666;9.700;2023-07-24T06:36:09;13.02;;;6.75;;
64197;SDS011;50512;53.666;9.700;2023-07-24T06:38:36;10.07;;;5.50;;
64197;SDS011;50512;53.666;9.700;2023-07-24T06:41:02;9.45;;;6.07;;
64197;SDS011;50512;53.666;9.700;2023-07-24T06:43:29;10.35;;;6.28;;
64197;SDS011;50512;53.666;9.700;2023-07-24T06:45:55;10.77;;;5.65;;
64197;SDS011;50512;53.666;9.700;2023-07-24T06:48:22;9.50;;;6.07;;
64197;SDS011;50512;53.666;9.700;2023-07-24T06:50:48;10.10;;;6.53;;
64197;SDS011;50512;53.666;9.700;2023-07-24T06:53:16;10.43;;;6.50;;
64197;SDS011;50512;53.666;9.700;2023-07-24T06:55:42;9.98;;;5.82;;
64197;SDS011;50512;53.666;9.700;2023-07-24T06:58:09;10.27;;;6.72;;
64197;SDS011;50512;53.666;9.700;2023-07-24T07:00:35;10.32;;;6.65;;
64197;SDS011;50512;53.666;9.700;2023-07-24T07:03:02;9.90;;;6.50;;
64197;SDS011;50512;53.666;9.700;2023-07-24T07:05:28;12.45;;;6.45;;
64197;SDS011;50512;53.666;9.700;2023-07-24T07:07:54;10.85;;;6.45;;
64197;SDS011;50512;53.666;9.700;2023-07-24T07:10:22;10.50;;;6.18;;
64197;SDS011;50512;53.666;9.700;2023-07-24T07:12:49;8.43;;;5.60;;
64197;SDS011;50512;53.666;9.700;2023-07-24T07:15:16;11.20;;;6.28;;
64197;SDS011;50512;53.666;9.700;2023-07-24T07:17:42;8.15;;;6.07;;
64197;SDS011;50512;53.666;9.700;2023-07-24T07:20:09;9.52;;;5.53;;
64197;SDS011;50512;53.666;9.700;2023-07-24T07:22:35;10.65;;;5.80;;
64197;SDS011;50512;53.666;9.700;2023-07-24T07:25:02;8.68;;;5.65;;
64197;SDS011;50512;53.666;9.700;2023-07-24T07:27:30;10.90;;;6.32;;
64197;SDS011;50512;53.666;9.700;2023-07-24T07:29:56;10.65;;;6.40;;
64197;SDS011;50512;53.666;9.700;2023-07-24T07:32:23;10.32;;;6.05;;
64197;SDS011;50512;53.666;9.700;2023-07-24T07:34:49;10.48;;;6.70;;
64197;SDS011;50512;53.666;9.700;2023-07-24T07:37:16;9.80;;;6.25;;
64197;SDS011;50512;53.666;9.700;2023-07-24T07:39:42;11.32;;;6.07;;
64197;SDS011;50512;53.666;9.700;2023-07-24T07:42:09;11.80;;;6.82;;
64197;SDS011;50512;53.666;9.700;2023-07-24T07:44:37;10.98;;;6.90;;
64197;SDS011;50512;53.666;9.700;2023-07-24T07:47:03;9.77;;;6.00;;
64197;SDS011;50512;53.666;9.700;2023-07-24T07:49:31;10.55;;;6.57;;
64197;SDS011;50512;53.666;9.700;2023-07-24T07:51:57;9.77;;;6.45;;
64197;SDS011;50512;53.666;9.700;2023-07-24T07:54:24;9.38;;;6.20;;
64197;SDS011;50512;53.666;9.700;2023-07-24T07:56:50;10.88;;;6.13;;
64197;SDS011;50512;53.666;9.700;2023-07-24T07:59:18;9.57;;;5.90;;
64197;SDS011;50512;53.666;9.700;2023-07-24T08:01:45;11.23;;;6.95;;
64197;SDS011;50512;53.666;9.700;2023-07-24T08:04:12;10.88;;;6.82;;
64197;SDS011;50512;53.666;9.700;2023-07-24T08:06:38;10.30;;;6.72;;
64197;SDS011;50512;53.666;9.700;2023-07-24T08:09:05;12.82;;;6.57;;
64197;SDS011;50512;53.666;9.700;2023-07-24T08:11:31;12.82;;;6.30;;
64197;SDS011;50512;53.666;9.700;2023-07-24T08:13:57;10.15;;;6.78;;
64197;SDS011;50512;53.666;9.700;2023-07-24T08:16:24;12.65;;;6.70;;
64197;SDS011;50512;53.666;9.700;2023-07-24T08:18:52;9.02;;;6.55;;
64197;SDS011;50512;53.666;9.700;2023-07-24T08:21:18;10.45;;;6.00;;
64197;SDS011;50512;53.666;9.700;2023-07-24T08:23:45;10.40;;;6.70;;
64197;SDS011;50512;53.666;9.700;2023-07-24T08:26:11;11.63;;;6.47;;
64197;SDS011;50512;53.666;9.700;2023-07-24T08:28:37;9.43;;;6.68;;
64197;SDS011;50512;53.666;9.700;2023-07-24T08:31:07;11.63;;;6.25;;
64197;SDS011;50512;53.666;9.700;2023-07-24T08:33:34;10.27;;;6.70;;
64197;SDS011;50512;53.666;9.700;2023-07-24T08:36:02;9.02;;;6.35;;
64197;SDS011;50512;53.666;9.700;2023-07-24T08:38:29;11.52;;;6.22;;
64197;SDS011;50512;53.666;9.700;2023-07-24T08:41:03;12.77;;;7.38;;
64197;SDS011;50512;53.666;9.700;2023-07-24T08:43:31;14.57;;;6.70;;
64197;SDS011;50512;53.666;9.700;2023-07-24T08:45:59;10.45;;;6.82;;
64197;SDS011;50512;53.666;9.700;2023-07-24T08:48:27;9.52;;;5.82;;
64197;SDS011;50512;53.666;9.700;2023-07-24T08:50:58;9.90;;;6.38;;
64197;SDS011;50512;53.666;9.700;2023-07-24T08:53:27;10.20;;;6.40;;
64197;SDS011;50512;53.666;9.700;2023-07-24T08:55:55;11.82;;;7.30;;
64197;SDS011;50512;53.666;9.700;2023-07-24T08:58:22;11.98;;;6.22;;
64197;SDS011;50512;53.666;9.700;2023-07-24T09:00:49;10.77;;;6.85;;
64197;SDS011;50512;53.666;9.700;2023-07-24T09:03:16;9.73;;;6.57;;
64197;SDS011;50512;53.666;9.700;2023-07-24T09:05:43;8.50;;;5.95;;
64197;SDS011;50512;53.666;9.700;2023-07-24T09:08:10;9.88;;;6.22;;
64197;SDS011;50512;53.666;9.700;2023-07-24T09:10:37;11.07;;;6.57;;
64197;SDS011;50512;53.666;9.700;2023-07-24T09:13:04;9.77;;;6.47;;
64197;SDS011;50512;53.666;9.700;2023-07-24T09:15:38;9.88;;;6.07;;
64197;SDS011;50512;53.666;9.700;2023-07-24T09:18:05;9.40;;;5.97;;
64197;SDS011;50512;53.666;9.700;2023-07-24T09:20:37;8.77;;;5.80;;
64197;SDS011;50512;53.666;9.700;2023-07-24T09:23:04;10.07;;;6.05;;
64197;SDS011;50512;53.666;9.700;2023-07-24T09:25:31;8.52;;;5.60;;
64197;SDS011;50512;53.666;9.700;2023-07-24T09:27:59;12.27;;;7.07;;
64197;SDS011;50512;53.666;9.700;2023-07-24T09:30:26;10.75;;;6.90;;
64197;SDS011;50512;53.666;9.700;2023-07-24T09:32:53;9.13;;;6.13;;
64197;SDS011;50512;53.666;9.700;2023-07-24T09:35:20;9.60;;;6.43;;
64197;SDS011;50512;53.666;9.700;2023-07-24T09:37:51;8.30;;;5.63;;
64197;SDS011;50512;53.666;9.700;2023-07-24T09:40:27;12.15;;;6.70;;
64197;SDS011;50512;53.666;9.700;2023-07-24T09:42:53;10.05;;;6.22;;
64197;SDS011;50512;53.666;9.700;2023-07-24T09:45:21;8.38;;;6.10;;
64197;SDS011;50512;53.666;9.700;2023-07-24T09:47:47;9.10;;;6.05;;
64197;SDS011;50512;53.666;9.700;2023-07-24T09:50:14;9.35;;;6.22;;
64197;SDS011;50512;53.666;9.700;2023-07-24T09:52:41;10.85;;;6.35;;
64197;SDS011;50512;53.666;9.700;2023-07-24T09:55:09;9.25;;;5.65;;
64197;SDS011;50512;53.666;9.700;2023-07-24T09:57:37;10.20;;;6.90;;
64197;SDS011;50512;53.666;9.700;2023-07-24T10:00:05;10.20;;;6.25;;
64197;SDS011;50512;53.666;9.700;2023-07-24T10:02:34;13.00;;;7.43;;
64197;SDS011;50512;53.666;9.700;2023-07-24T10:05:02;8.48;;;5.38;;
64197;SDS011;50512;53.666;9.700;2023-07-24T10:07:29;12.45;;;6.13;;
64197;SDS011;50512;53.666;9.700;2023-07-24T10:09:55;8.35;;;5.40;;
64197;SDS011;50512;53.666;9.700;2023-07-24T10:12:22;10.32;;;6.50;;
64197;SDS011;50512;53.666;9.700;2023-07-24T10:14:52;9.02;;;6.07;;
64197;SDS011;50512;53.666;9.700;2023-07-24T10:17:37;10.73;;;5.85;;
64197;SDS011;50512;53.666;9.700;2023-07-24T10:20:04;9.90;;;5.85;;
64197;SDS011;50512;53.666;9.700;2023-07-24T10:22:32;10.27;;;5.90;;
64197;SDS011;50512;53.666;9.700;2023-07-24T10:24:59;11.02;;;5.95;;
64197;SDS011;50512;53.666;9.700;2023-07-24T10:27:25;8.43;;;5.70;;
64197;SDS011;50512;53.666;9.700;2023-07-24T10:29:59;9.52;;;5.65;;
64197;SDS011;50512;53.666;9.700;2023-07-24T10:32:26;9.07;;;5.53;;
64197;SDS011;50512;53.666;9.700;2023-07-24T10:34:57;11.13;;;5.88;;
64197;SDS011;50512;53.666;9.700;2023-07-24T10:37:31;11.73;;;5.90;;
64197;SDS011;50512;53.666;9.700;2023-07-24T10:39:59;8.60;;;5.50;;
64197;SDS011;50512;53.666;9.700;2023-07-24T10:42:26;10.25;;;5.65;;
64197;SDS011;50512;53.666;9.700;2023-07-24T10:45:01;11.18;;;6.72;;
64197;SDS011;50512;53.666;9.700;2023-07-24T10:47:29;10.40;;;5.97;;
64197;SDS011;50512;53.666;9.700;2023-07-24T10:49:58;9.40;;;5.93;;
64197;SDS011;50512;53.666;9.700;2023-07-24T10:52:27;7.80;;;5.20;;
64197;SDS011;50512;53.666;9.700;2023-07-24T10:54:53;8.82;;;5.53;;
64197;SDS011;50512;53.666;9.700;2023-07-24T10:57:24;9.20;;;5.93;;
64197;SDS011;50512;53.666;9.700;2023-07-24T10:59:51;7.72;;;5.57;;
64197;SDS011;50512;53.666;9.700;2023-07-24T11:02:18;8.43;;;4.82;;
64197;SDS011;50512;53.666;9.700;2023-07-24T11:04:44;7.75;;;4.85;;
64197;SDS011;50512;53.666;9.700;2023-07-24T11:07:13;10.43;;;5.40;;
64197;SDS011;50512;53.666;9.700;2023-07-24T11:09:40;7.55;;;4.97;;
64197;SDS011;50512;53.666;9.700;2023-07-24T11:12:10;9.07;;;5.07;;
64197;SDS011;50512;53.666;9.700;2023-07-24T11:14:50;7.97;;;5.03;;
64197;SDS011;50512;53.666;9.700;2023-07-24T11:17:19;7.07;;;5.35;;
64197;SDS011;50512;53.666;9.700;2023-07-24T11:19:45;8.73;;;4.97;;
64197;SDS011;50512;53.666;9.700;2023-07-24T11:22:14;7.45;;;4.38;;
64197;SDS011;50512;53.666;9.700;2023-07-24T11:24:45;8.98;;;5.15;;
64197;SDS011;50512;53.666;9.700;2023-07-24T11:27:12;8.15;;;4.93;;
64197;SDS011;50512;53.666;9.700;2023-07-24T11:29:40;7.80;;;5.22;;
64197;SDS011;50512;53.666;9.700;2023-07-24T11:32:07;8.98;;;4.95;;
64197;SDS011;50512;53.666;9.700;2023-07-24T11:34:33;7.88;;;4.93;;
64197;SDS011;50512;53.666;9.700;2023-07-24T11:37:01;7.55;;;4.93;;
64197;SDS011;50512;53.666;9.700;2023-07-24T11:39:29;8.23;;;5.28;;
64197;SDS011;50512;53.666;9.700;2023-07-24T11:41:55;8.50;;;5.82;;
64197;SDS011;50512;53.666;9.700;2023-07-24T11:44:26;9.93;;;5.40;;
64197;SDS011;50512;53.666;9.700;2023-07-24T11:46:59;8.07;;;5.18;;
64197;SDS011;50512;53.666;9.700;2023-07-24T11:49:27;9.32;;;5.25;;
64197;SDS011;50512;53.666;9.700;2023-07-24T11:51:58;10.65;;;5.35;;
64197;SDS011;50512;53.666;9.700;2023-07-24T11:54:26;12.43;;;5.50;;
64197;SDS011;50512;53.666;9.700;2023-07-24T11:56:53;8.55;;;5.18;;
64197;SDS011;50512;53.666;9.700;2023-07-24T11:59:20;8.60;;;5.57;;
64197;SDS011;50512;53.666;9.700;2023-07-24T12:01:46;8.10;;;4.82;;
64197;SDS011;50512;53.666;9.700;2023-07-24T12:04:13;8.50;;;4.90;;
64197;SDS011;50512;53.666;9.700;2023-07-24T12:06:40;8.60;;;5.35;;
64197;SDS011;50512;53.666;9.700;2023-07-24T12:09:07;8.63;;;5.90;;
64197;SDS011;50512;53.666;9.700;2023-07-24T12:11:38;8.70;;;5.85;;
64197;SDS011;50512;53.666;9.700;2023-07-24T12:14:06;9.60;;;5.63;;
64197;SDS011;50512;53.666;9.700;2023-07-24T12:16:33;7.32;;;5.32;;
64197;SDS011;50512;53.666;9.700;2023-07-24T12:19:00;9.35;;;5.13;;
64197;SDS011;50512;53.666;9.700;2023-07-24T12:21:26;9.93;;;4.88;;
64197;SDS011;50512;53.666;9.700;2023-07-24T12:23:53;8.75;;;4.97;;
64197;SDS011;50512;53.666;9.700;2023-07-24T12:26:19;8.65;;;4.90;;
64197;SDS011;50512;53.666;9.700;2023-07-24T12:28:45;8.32;;;5.15;;
64197;SDS011;50512;53.666;9.700;2023-07-24T12:31:13;7.32;;;5.35;;
64197;SDS011;50512;53.666;9.700;2023-07-24T12:33:40;7.45;;;5.10;;
64197;SDS011;50512;53.666;9.700;2023-07-24T12:36:06;7.85;;;5.07;;
64197;SDS011;50512;53.666;9.700;2023-07-24T12:38:32;9.25;;;5.43;;
64197;SDS011;50512;53.666;9.700;2023-07-24T12:40:59;7.43;;;4.88;;
64197;SDS011;50512;53.666;9.700;2023-07-24T12:43:25;7.00;;;4.75;;
64197;SDS011;50512;53.666;9.700;2023-07-24T12:45:52;8.10;;;3.92;;
64197;SDS011;50512;53.666;9.700;2023-07-24T12:48:20;8.90;;;5.20;;
64197;SDS011;50512;53.666;9.700;2023-07-24T12:50:46;8.00;;;4.75;;
64197;SDS011;50512;53.666;9.700;2023-07-24T12:53:13;7.28;;;4.78;;
64197;SDS011;50512;53.666;9.700;2023-07-24T12:55:39;7.97;;;5.63;;
64197;SDS011;50512;53.666;9.700;2023-07-24T12:58:05;7.10;;;5.07;;
64197;SDS011;50512;53.666;9.700;2023-07-24T13:00:32;7.90;;;5.32;;
64197;SDS011;50512;53.666;9.700;2023-07-24T13:02:58;7.68;;;5.28;;
64197;SDS011;50512;53.666;9.700;2023-07-24T13:05:26;10.10;;;6.18;;
64197;SDS011;50512;53.666;9.700;2023-07-24T13:07:52;7.03;;;4.57;;
64197;SDS011;50512;53.666;9.700;2023-07-24T13:10:19;12.80;;;5.68;;
64197;SDS011;50512;53.666;9.700;2023-07-24T13:12:45;8.02;;;5.20;;
64197;SDS011;50512;53.666;9.700;2023-07-24T13:15:12;7.55;;;5.15;;
64197;SDS011;50512;53.666;9.700;2023-07-24T13:17:39;8.02;;;5.38;;
64197;SDS011;50512;53.666;9.700;2023-07-24T13:20:06;7.15;;;4.55;;
64197;SDS011;50512;53.666;9.700;2023-07-24T13:22:34;8.57;;;4.63;;
64197;SDS011;50512;53.666;9.700;2023-07-24T13:25:01;7.45;;;4.63;;
64197;SDS011;50512;53.666;9.700;2023-07-24T13:27:27;10.95;;;5.45;;
64197;SDS011;50512;53.666;9.700;2023-07-24T13:29:54;8.80;;;5.70;;
64197;SDS011;50512;53.666;9.700;2023-07-24T13:32:20;7.80;;;5.10;;
64197;SDS011;50512;53.666;9.700;2023-07-24T13:34:47;6.72;;;4.95;;
64197;SDS011;50512;53.666;9.700;2023-07-24T13:37:13;12.93;;;5.75;;
64197;SDS011;50512;53.666;9.700;2023-07-24T13:39:41;7.75;;;4.72;;
64197;SDS011;50512;53.666;9.700;2023-07-24T13:42:07;8.10;;;5.60;;
64197;SDS011;50512;53.666;9.700;2023-07-24T13:44:34;8.55;;;5.35;;
64197;SDS011;50512;53.666;9.700;2023-07-24T13:47:00;7.90;;;5.75;;
64197;SDS011;50512;53.666;9.700;2023-07-24T13:49:27;9.77;;;5.60;;
64197;SDS011;50512;53.666;9.700;2023-07-24T13:51:53;9.95;;;5.22;;
64197;SDS011;50512;53.666;9.700;2023-07-24T13:54:20;8.23;;;5.18;;
64197;SDS011;50512;53.666;9.700;2023-07-24T13:56:47;11.40;;;5.47;;
64197;SDS011;50512;53.666;9.700;2023-07-24T13:59:14;9.02;;;5.13;;
64197;SDS011;50512;53.666;9.700;2023-07-24T14:01:40;8.15;;;5.20;;
64197;SDS011;50512;53.666;9.700;2023-07-24T14:04:07;11.13;;;5.97;;
64197;SDS011;50512;53.666;9.700;2023-07-24T14:06:33;10.27;;;5.82;;
64197;SDS011;50512;53.666;9.700;2023-07-24T14:09:00;30.73;;;6.53;;
64197;SDS011;50512;53.666;9.700;2023-07-24T14:11:28;11.57;;;5.43;;
64197;SDS011;50512;53.666;9.700;2023-07-24T14:13:56;13.63;;;6.72;;
64197;SDS011;50512;53.666;9.700;2023-07-24T14:16:22;14.48;;;6.70;;
64197;SDS011;50512;53.666;9.700;2023-07-24T14:18:49;15.93;;;6.88;;
64197;SDS011;50512;53.666;9.700;2023-07-24T14:21:15;12.23;;;6.65;;
64197;SDS011;50512;53.666;9.700;2023-07-24T14:23:41;12.02;;;6.80;;
64197;SDS011;50512;53.666;9.700;2023-07-24T14:26:08;20.00;;;8.02;;
64197;SDS011;50512;53.666;9.700;2023-07-24T14:28:34;14.13;;;6.75;;
64197;SDS011;50512;53.666;9.700;2023-07-24T14:31:02;15.52;;;7.35;;
64197;SDS011;50512;53.666;9.700;2023-07-24T14:33:29;13.32;;;6.32;;
64197;SDS011;50512;53.666;9.700;2023-07-24T14:35:55;12.18;;;6.68;;
64197;SDS011;50512;53.666;9.700;2023-07-24T14:38:22;22.25;;;7.85;;
64197;SDS011;50512;53.666;9.700;2023-07-24T14:40:48;14.68;;;6.78;;